sensor_id;sensor_type;location;lat;lon;timestamp;P1;P4;P2;P0;N10;N4;N25;N1;N05;TS
60286;SPS30;46141;52.382;5.270;2023-11-19T00:00:24;1.44;1.44;1.39;1.27;10.13;10.12;10.11;10.03;8.75;0.58
60286;SPS30;46141;52.382;5.270;2023-11-19T00:02:50;1.54;1.53;1.49;1.35;10.81;10.81;10.79;10.70;9.34;0.59
60286;SPS30;46141;52.382;5.270;2023-11-19T00:05:17;1.35;1.34;1.30;1.18;9.41;9.40;9.39;9.31;8.12;0.60
60286;SPS30;46141;52.382;5.270;2023-11-19T00:07:43;1.39;1.38;1.33;1.21;9.65;9.64;9.63;9.54;8.33;0.61
60286;SPS30;46141;52.382;5.270;2023-11-19T00:10:16;1.52;1.51;1.45;1.30;10.39;10.39;10.37;10.26;8.93;0.62
60286;SPS30;46141;52.382;5.270;2023-11-19T00:12:46;1.58;1.57;1.52;1.38;11.02;11.01;10.99;10.90;9.51;0.60
60286;SPS30;46141;52.382;5.270;2023-11-19T00:15:14;1.93;1.91;1.85;1.68;13.45;13.44;13.42;13.30;11.61;0.60
60286;SPS30;46141;52.382;5.270;2023-11-19T00:17:41;1.76;1.75;1.68;1.50;12.00;11.99;11.97;11.84;10.30;0.60
60286;SPS30;46141;52.382;5.270;2023-11-19T00:20:11;1.51;1.49;1.43;1.28;10.21;10.21;10.19;10.08;8.76;0.60
60286;SPS30;46141;52.382;5.270;2023-11-19T00:22:37;1.35;1.34;1.30;1.18;9.41;9.41;9.39;9.32;8.13;0.58
60286;SPS30;46141;52.382;5.270;2023-11-19T00:25:03;1.65;1.64;1.59;1.44;11.55;11.55;11.53;11.43;9.98;0.57
60286;SPS30;46141;52.382;5.270;2023-11-19T00:27:32;1.63;1.62;1.56;1.41;11.24;11.23;11.21;11.10;9.67;0.58
60286;SPS30;46141;52.382;5.270;2023-11-19T00:29:58;1.42;1.42;1.37;1.25;9.97;9.97;9.95;9.87;8.62;0.59
60286;SPS30;46141;52.382;5.270;2023-11-19T00:32:24;1.46;1.45;1.40;1.28;10.20;10.19;10.18;10.09;8.81;0.59
60286;SPS30;46141;52.382;5.270;2023-11-19T00:34:51;1.52;1.51;1.47;1.33;10.65;10.64;10.62;10.54;9.20;0.59
60286;SPS30;46141;52.382;5.270;2023-11-19T00:37:17;1.31;1.30;1.25;1.12;8.97;8.97;8.95;8.86;7.71;0.60
60286;SPS30;46141;52.382;5.270;2023-11-19T00:39:43;1.56;1.55;1.49;1.34;10.74;10.74;10.71;10.61;9.24;0.60
60286;SPS30;46141;52.382;5.270;2023-11-19T00:42:10;1.58;1.56;1.48;1.31;10.52;10.51;10.48;10.36;8.99;0.62
60286;SPS30;46141;52.382;5.270;2023-11-19T00:44:37;1.53;1.51;1.43;1.25;10.04;10.03;10.00;9.87;8.55;0.61
60286;SPS30;46141;52.382;5.270;2023-11-19T00:47:03;1.67;1.65;1.56;1.36;10.88;10.87;10.84;10.68;9.24;0.60
60286;SPS30;46141;52.382;5.270;2023-11-19T00:49:30;1.73;1.70;1.59;1.38;11.04;11.03;11.00;10.82;9.34;0.63
60286;SPS30;46141;52.382;5.270;2023-11-19T00:51:57;1.95;1.92;1.80;1.56;12.47;12.46;12.42;12.22;10.55;0.63
60286;SPS30;46141;52.382;5.270;2023-11-19T00:54:24;1.49;1.46;1.36;1.16;9.32;9.31;9.28;9.12;7.84;0.64
60286;SPS30;46141;52.382;5.270;2023-11-19T00:56:54;1.77;1.75;1.61;1.36;10.91;10.91;10.86;10.65;9.14;0.66
60286;SPS30;46141;52.382;5.270;2023-11-19T00:59:20;1.69;1.66;1.50;1.23;9.90;9.89;9.84;9.60;8.18;0.66
60286;SPS30;46141;52.382;5.270;2023-11-19T01:01:46;1.64;1.61;1.47;1.22;9.77;9.76;9.72;9.50;8.11;0.66
60286;SPS30;46141;52.382;5.270;2023-11-19T01:04:16;1.89;1.86;1.70;1.41;11.31;11.30;11.24;10.99;9.39;0.66
60286;SPS30;46141;52.382;5.270;2023-11-19T01:06:42;1.61;1.58;1.44;1.20;9.63;9.62;9.57;9.36;8.00;0.66
60286;SPS30;46141;52.382;5.270;2023-11-19T01:09:08;1.69;1.66;1.50;1.24;9.93;9.92;9.87;9.63;8.21;0.67
60286;SPS30;46141;52.382;5.270;2023-11-19T01:11:35;2.07;2.03;1.86;1.56;12.48;12.47;12.41;12.15;10.40;0.65
60286;SPS30;46141;52.382;5.270;2023-11-19T01:14:01;1.71;1.68;1.55;1.30;10.44;10.43;10.38;10.17;8.72;0.66
60286;SPS30;46141;52.382;5.270;2023-11-19T01:16:27;1.64;1.62;1.50;1.29;10.30;10.29;10.25;10.07;8.67;0.64
60286;SPS30;46141;52.382;5.270;2023-11-19T01:18:54;1.77;1.74;1.62;1.39;11.14;11.14;11.10;10.91;9.39;0.64
60286;SPS30;46141;52.382;5.270;2023-11-19T01:21:21;1.81;1.79;1.68;1.45;11.63;11.62;11.59;11.41;9.85;0.64
60286;SPS30;46141;52.382;5.270;2023-11-19T01:23:49;1.84;1.81;1.68;1.44;11.56;11.55;11.51;11.31;9.73;0.66
60286;SPS30;46141;52.382;5.270;2023-11-19T01:26:15;1.90;1.87;1.72;1.44;11.55;11.55;11.50;11.26;9.64;0.67
60286;SPS30;46141;52.382;5.270;2023-11-19T01:28:41;2.02;1.99;1.84;1.55;12.44;12.43;12.38;12.13;10.41;0.67
60286;SPS30;46141;52.382;5.270;2023-11-19T01:31:10;1.98;1.95;1.82;1.56;12.53;12.52;12.48;12.27;10.57;0.66
60286;SPS30;46141;52.382;5.270;2023-11-19T01:33:37;1.72;1.69;1.56;1.33;10.65;10.65;10.60;10.41;8.94;0.65
60286;SPS30;46141;52.382;5.270;2023-11-19T01:36:04;1.77;1.74;1.59;1.33;10.68;10.67;10.62;10.39;8.89;0.67
60286;SPS30;46141;52.382;5.270;2023-11-19T01:38:30;1.78;1.75;1.59;1.31;10.51;10.50;10.45;10.21;8.71;0.67
60286;SPS30;46141;52.382;5.270;2023-11-19T01:40:56;1.91;1.88;1.70;1.41;11.31;11.30;11.25;10.99;9.38;0.66
60286;SPS30;46141;52.382;5.270;2023-11-19T01:43:32;2.05;2.02;1.82;1.49;11.98;11.97;11.91;11.62;9.89;0.67
60286;SPS30;46141;52.382;5.270;2023-11-19T01:45:59;2.06;2.01;1.80;1.44;11.57;11.55;11.49;11.16;9.44;0.69
60286;SPS30;46141;52.382;5.270;2023-11-19T01:48:25;1.89;1.84;1.62;1.27;10.17;10.16;10.09;9.76;8.20;0.72
60286;SPS30;46141;52.382;5.270;2023-11-19T01:50:52;1.89;1.84;1.58;1.19;9.56;9.55;9.47;9.10;7.56;0.74
60286;SPS30;46141;52.382;5.270;2023-11-19T01:53:19;2.07;2.01;1.72;1.27;10.25;10.24;10.15;9.72;8.03;0.74
60286;SPS30;46141;52.382;5.270;2023-11-19T01:55:46;1.97;1.91;1.65;1.25;10.06;10.04;9.96;9.58;7.97;0.72
60286;SPS30;46141;52.382;5.270;2023-11-19T01:58:13;2.51;2.44;2.12;1.63;13.11;13.10;13.00;12.53;10.47;0.72
60286;SPS30;46141;52.382;5.270;2023-11-19T02:00:39;2.11;2.05;1.78;1.36;10.96;10.95;10.86;10.46;8.73;0.72
60286;SPS30;46141;52.382;5.270;2023-11-19T02:03:06;2.03;1.98;1.72;1.32;10.64;10.63;10.55;10.17;8.50;0.71
60286;SPS30;46141;52.382;5.270;2023-11-19T02:05:33;2.10;2.05;1.77;1.34;10.81;10.80;10.71;10.30;8.58;0.72
60286;SPS30;46141;52.382;5.270;2023-11-19T02:08:00;2.03;1.98;1.72;1.32;10.63;10.62;10.54;10.16;8.50;0.71
60286;SPS30;46141;52.382;5.270;2023-11-19T02:10:26;2.09;2.04;1.78;1.39;11.15;11.14;11.06;10.68;8.96;0.71
60286;SPS30;46141;52.382;5.270;2023-11-19T02:12:52;2.08;2.03;1.79;1.40;11.25;11.24;11.16;10.80;9.08;0.71
60286;SPS30;46141;52.382;5.270;2023-11-19T02:15:20;2.49;2.43;2.11;1.63;13.11;13.10;13.00;12.54;10.50;0.72
60286;SPS30;46141;52.382;5.270;2023-11-19T02:17:49;2.60;2.52;2.12;1.53;12.35;12.33;12.21;11.63;9.54;0.76
60286;SPS30;46141;52.382;5.270;2023-11-19T02:20:15;2.99;2.90;2.43;1.76;14.14;14.12;13.98;13.30;10.90;0.76
60286;SPS30;46141;52.382;5.270;2023-11-19T02:22:41;2.41;2.35;2.00;1.48;11.94;11.93;11.82;11.32;9.36;0.74
60286;SPS30;46141;52.382;5.270;2023-11-19T02:25:07;2.06;2.00;1.72;1.29;10.40;10.39;10.30;9.88;8.21;0.73
60286;SPS30;46141;52.382;5.270;2023-11-19T02:30:10;2.38;2.31;1.99;1.51;12.16;12.15;12.05;11.59;9.65;0.73
60286;SPS30;46141;52.382;5.270;2023-11-19T02:32:40;2.41;2.35;2.04;1.58;12.66;12.65;12.55;12.11;10.13;0.72
60286;SPS30;46141;52.382;5.270;2023-11-19T02:35:06;2.31;2.26;1.97;1.54;12.33;12.32;12.23;11.82;9.91;0.70
60286;SPS30;46141;52.382;5.270;2023-11-19T02:37:36;2.50;2.44;2.13;1.64;13.21;13.19;13.10;12.64;10.58;0.70
60286;SPS30;46141;52.382;5.270;2023-11-19T02:40:03;2.41;2.35;2.05;1.59;12.80;12.79;12.70;12.26;10.28;0.70
60286;SPS30;46141;52.382;5.270;2023-11-19T02:42:30;2.59;2.52;2.18;1.66;13.31;13.29;13.19;12.68;10.57;0.71
60286;SPS30;46141;52.382;5.270;2023-11-19T02:44:56;2.92;2.84;2.43;1.82;14.66;14.64;14.52;13.93;11.55;0.73
60286;SPS30;46141;52.382;5.270;2023-11-19T02:47:23;2.50;2.42;2.05;1.49;12.02;12.01;11.89;11.35;9.33;0.75
60286;SPS30;46141;52.382;5.270;2023-11-19T02:49:49;2.52;2.44;2.06;1.50;12.05;12.03;11.92;11.36;9.34;0.76
60286;SPS30;46141;52.382;5.270;2023-11-19T02:52:16;2.57;2.49;2.11;1.55;12.46;12.44;12.33;11.77;9.70;0.75
60286;SPS30;46141;52.382;5.270;2023-11-19T02:54:42;2.55;2.47;2.10;1.55;12.48;12.46;12.35;11.81;9.74;0.75
60286;SPS30;46141;52.382;5.270;2023-11-19T02:57:08;2.56;2.49;2.09;1.51;12.18;12.16;12.04;11.47;9.41;0.75
60286;SPS30;46141;52.382;5.270;2023-11-19T02:59:37;2.74;2.66;2.23;1.61;12.99;12.97;12.84;12.22;10.02;0.75
60286;SPS30;46141;52.382;5.270;2023-11-19T03:02:07;2.72;2.64;2.22;1.62;13.02;13.01;12.88;12.28;10.09;0.74
60286;SPS30;46141;52.382;5.270;2023-11-19T03:04:37;2.75;2.66;2.24;1.63;13.13;13.11;12.98;12.37;10.16;0.75
60286;SPS30;46141;52.382;5.270;2023-11-19T03:07:08;2.90;2.81;2.36;1.70;13.65;13.63;13.50;12.84;10.51;0.77
60286;SPS30;46141;52.382;5.270;2023-11-19T03:09:34;2.78;2.70;2.27;1.66;13.34;13.32;13.19;12.58;10.34;0.75
60286;SPS30;46141;52.382;5.270;2023-11-19T03:12:01;2.74;2.65;2.22;1.60;12.88;12.86;12.73;12.11;9.91;0.75
60286;SPS30;46141;52.382;5.270;2023-11-19T03:14:27;2.98;2.88;2.38;1.67;13.48;13.46;13.31;12.60;10.23;0.78
60286;SPS30;46141;52.382;5.270;2023-11-19T03:16:53;3.38;3.26;2.67;1.83;14.77;14.75;14.57;13.72;11.05;0.81
60286;SPS30;46141;52.382;5.270;2023-11-19T03:19:19;3.21;3.09;2.54;1.75;14.11;14.08;13.92;13.12;10.58;0.81
60286;SPS30;46141;52.382;5.270;2023-11-19T03:21:46;3.06;2.96;2.44;1.70;13.73;13.71;13.55;12.81;10.38;0.79
60286;SPS30;46141;52.382;5.270;2023-11-19T03:24:13;3.31;3.20;2.65;1.86;15.02;15.00;14.83;14.04;11.40;0.79
60286;SPS30;46141;52.382;5.270;2023-11-19T03:26:40;3.34;3.23;2.65;1.82;14.71;14.68;14.51;13.68;11.03;0.80
60286;SPS30;46141;52.382;5.270;2023-11-19T03:29:07;3.62;3.49;2.85;1.94;15.63;15.60;15.40;14.48;11.62;0.81
60286;SPS30;46141;52.382;5.270;2023-11-19T03:31:33;3.24;3.13;2.57;1.77;14.27;14.25;14.08;13.27;10.70;0.81
60286;SPS30;46141;52.382;5.270;2023-11-19T03:33:59;3.66;3.54;2.90;1.99;16.06;16.03;15.84;14.92;12.02;0.81
60286;SPS30;46141;52.382;5.270;2023-11-19T03:36:31;2.94;2.85;2.41;1.76;14.13;14.11;13.97;13.33;10.96;0.77
60286;SPS30;46141;52.382;5.270;2023-11-19T03:38:57;2.74;2.66;2.25;1.65;13.25;13.23;13.11;12.52;10.31;0.77
60286;SPS30;46141;52.382;5.270;2023-11-19T03:41:23;3.43;3.31;2.68;1.81;14.59;14.56;14.38;13.49;10.78;0.80
60286;SPS30;46141;52.382;5.270;2023-11-19T03:43:49;3.98;3.81;2.99;1.87;15.12;15.08;14.84;13.68;10.61;0.84
60286;SPS30;46141;52.382;5.270;2023-11-19T03:46:18;3.84;3.69;2.90;1.82;14.74;14.71;14.47;13.36;10.38;0.84
60286;SPS30;46141;52.382;5.270;2023-11-19T03:48:46;3.90;3.75;3.00;1.96;15.84;15.81;15.59;14.52;11.47;0.82
60286;SPS30;46141;52.382;5.270;2023-11-19T03:51:12;3.93;3.77;2.99;1.91;15.44;15.41;15.17;14.06;11.01;0.84
60286;SPS30;46141;52.382;5.270;2023-11-19T03:53:45;4.17;4.00;3.11;1.90;15.37;15.33;15.07;13.81;10.61;0.86
60286;SPS30;46141;52.382;5.270;2023-11-19T03:56:11;4.01;3.85;3.06;1.98;15.98;15.95;15.71;14.59;11.47;0.82
60286;SPS30;46141;52.382;5.270;2023-11-19T03:58:38;3.74;3.60;2.91;1.94;15.67;15.64;15.43;14.44;11.51;0.80
60286;SPS30;46141;52.382;5.270;2023-11-19T04:01:05;3.43;3.32;2.74;1.93;15.52;15.50;15.32;14.50;11.77;0.77
60286;SPS30;46141;52.382;5.270;2023-11-19T04:03:31;3.11;3.02;2.58;1.91;15.37;15.35;15.21;14.56;12.04;0.75
60286;SPS30;46141;52.382;5.270;2023-11-19T04:05:57;3.02;2.93;2.48;1.81;14.57;14.55;14.41;13.75;11.32;0.77
60286;SPS30;46141;52.382;5.270;2023-11-19T04:08:24;3.38;3.26;2.68;1.86;14.98;14.95;14.77;13.94;11.26;0.80
60286;SPS30;46141;52.382;5.270;2023-11-19T04:10:50;3.72;3.59;2.91;1.96;15.83;15.80;15.60;14.63;11.70;0.83
60286;SPS30;46141;52.382;5.270;2023-11-19T04:13:16;4.31;4.13;3.27;2.08;16.83;16.79;16.53;15.30;11.96;0.86
60286;SPS30;46141;52.382;5.270;2023-11-19T04:15:42;3.89;3.73;2.91;1.80;14.55;14.51;14.27;13.11;10.11;0.88
60286;SPS30;46141;52.382;5.270;2023-11-19T04:18:08;4.02;3.86;3.04;1.93;15.59;15.55;15.31;14.16;11.04;0.87
60286;SPS30;46141;52.382;5.270;2023-11-19T04:20:34;3.49;3.36;2.67;1.71;13.86;13.83;13.63;12.65;9.93;0.86
60286;SPS30;46141;52.382;5.270;2023-11-19T04:23:01;3.52;3.39;2.74;1.84;14.82;14.79;14.60;13.67;10.90;0.83
60286;SPS30;46141;52.382;5.270;2023-11-19T04:25:29;3.34;3.22;2.64;1.81;14.62;14.60;14.42;13.59;10.94;0.81
60286;SPS30;46141;52.382;5.270;2023-11-19T04:27:55;3.24;3.12;2.51;1.66;13.42;13.39;13.21;12.34;9.80;0.84
60286;SPS30;46141;52.382;5.270;2023-11-19T04:30:21;3.92;3.77;3.04;2.03;16.39;16.36;16.14;15.10;12.03;0.83
60286;SPS30;46141;52.382;5.270;2023-11-19T04:32:47;4.13;3.98;3.24;2.20;17.75;17.72;17.50;16.44;13.18;0.81
60286;SPS30;46141;52.382;5.270;2023-11-19T04:35:13;4.32;4.16;3.35;2.21;17.88;17.85;17.61;16.45;13.06;0.83
60286;SPS30;46141;52.382;5.270;2023-11-19T04:37:41;4.27;4.10;3.26;2.10;16.96;16.92;16.67;15.48;12.15;0.86
60286;SPS30;46141;52.382;5.270;2023-11-19T04:40:07;4.10;3.94;3.14;2.04;16.51;16.48;16.24;15.11;11.91;0.86
60286;SPS30;46141;52.382;5.270;2023-11-19T04:42:34;3.95;3.80;3.03;1.96;15.82;15.78;15.55;14.45;11.37;0.86
60286;SPS30;46141;52.382;5.270;2023-11-19T04:45:00;4.11;3.95;3.16;2.06;16.61;16.57;16.34;15.20;12.00;0.84
60286;SPS30;46141;52.382;5.270;2023-11-19T04:47:26;3.66;3.52;2.83;1.88;15.15;15.12;14.91;13.94;11.07;0.83
60286;SPS30;46141;52.382;5.270;2023-11-19T04:49:55;4.58;4.41;3.60;2.44;19.72;19.68;19.44;18.27;14.66;0.80
60286;SPS30;46141;52.382;5.270;2023-11-19T04:52:21;3.65;3.54;2.96;2.12;17.11;17.08;16.91;16.08;13.15;0.77
60286;SPS30;46141;52.382;5.270;2023-11-19T04:54:46;3.10;3.00;2.49;1.77;14.23;14.21;14.06;13.33;10.86;0.79
60286;SPS30;46141;52.382;5.270;2023-11-19T04:57:13;3.61;3.49;2.91;2.08;16.73;16.70;16.53;15.69;12.80;0.79
60286;SPS30;46141;52.382;5.270;2023-11-19T04:59:39;3.39;3.28;2.76;2.01;16.16;16.13;15.97;15.22;12.50;0.77
60286;SPS30;46141;52.382;5.270;2023-11-19T05:02:06;4.00;3.86;3.19;2.22;17.91;17.88;17.68;16.71;13.53;0.80
60286;SPS30;46141;52.382;5.270;2023-11-19T05:04:32;3.63;3.50;2.88;2.00;16.10;16.07;15.88;14.99;12.12;0.81
60286;SPS30;46141;52.382;5.270;2023-11-19T05:06:58;3.42;3.30;2.69;1.83;14.74;14.71;14.53;13.66;10.96;0.83
60286;SPS30;46141;52.382;5.270;2023-11-19T05:09:24;3.97;3.82;3.08;2.04;16.52;16.48;16.26;15.20;12.09;0.84
60286;SPS30;46141;52.382;5.270;2023-11-19T05:11:50;4.68;4.50;3.57;2.30;18.57;18.53;18.26;16.94;13.30;0.87
60286;SPS30;46141;52.382;5.270;2023-11-19T05:14:16;4.20;4.03;3.18;2.02;16.32;16.28;16.03;14.82;11.57;0.87
60286;SPS30;46141;52.382;5.270;2023-11-19T05:16:45;4.57;4.38;3.42;2.10;17.04;17.00;16.72;15.35;11.84;0.88
60286;SPS30;46141;52.382;5.270;2023-11-19T05:19:11;5.50;5.26;4.02;2.37;19.20;19.14;18.78;17.04;12.85;0.92
60286;SPS30;46141;52.382;5.270;2023-11-19T05:21:37;4.64;4.44;3.43;2.06;16.71;16.67;16.37;14.94;11.39;0.90
60286;SPS30;46141;52.382;5.270;2023-11-19T05:24:03;4.62;4.42;3.44;2.11;17.11;17.07;16.78;15.40;11.85;0.87
60286;SPS30;46141;52.382;5.270;2023-11-19T05:26:29;4.33;4.16;3.27;2.07;16.73;16.69;16.43;15.18;11.83;0.85
60286;SPS30;46141;52.382;5.270;2023-11-19T05:28:56;3.86;3.72;2.98;1.96;15.87;15.84;15.62;14.58;11.55;0.84
60286;SPS30;46141;52.382;5.270;2023-11-19T05:31:22;4.31;4.14;3.31;2.16;17.47;17.44;17.19;16.01;12.64;0.82
60286;SPS30;46141;52.382;5.270;2023-11-19T05:33:48;4.15;4.00;3.22;2.14;17.27;17.24;17.01;15.90;12.64;0.82
60286;SPS30;46141;52.382;5.270;2023-11-19T05:36:14;4.48;4.31;3.45;2.26;18.29;18.25;17.99;16.77;13.27;0.84
60286;SPS30;46141;52.382;5.270;2023-11-19T05:38:40;4.07;3.90;3.09;1.96;15.88;15.84;15.60;14.44;11.29;0.86
60286;SPS30;46141;52.382;5.270;2023-11-19T05:41:06;4.76;4.56;3.57;2.22;17.97;17.93;17.64;16.24;12.57;0.87
60286;SPS30;46141;52.382;5.270;2023-11-19T05:43:32;4.20;4.04;3.24;2.12;17.15;17.11;16.87;15.73;12.44;0.83
60286;SPS30;46141;52.382;5.270;2023-11-19T05:45:59;3.74;3.60;2.89;1.90;15.32;15.29;15.08;14.06;11.14;0.84
60286;SPS30;46141;52.382;5.270;2023-11-19T05:48:26;4.17;4.01;3.16;2.00;16.21;16.17;15.92;14.72;11.49;0.86
60286;SPS30;46141;52.382;5.270;2023-11-19T05:50:52;4.31;4.13;3.23;2.00;16.19;16.15;15.89;14.61;11.29;0.87
60286;SPS30;46141;52.382;5.270;2023-11-19T05:53:18;4.76;4.57;3.59;2.24;18.17;18.13;17.83;16.44;12.76;0.87
60286;SPS30;46141;52.382;5.270;2023-11-19T05:55:45;4.44;4.26;3.37;2.14;17.31;17.27;17.00;15.74;12.29;0.86
60286;SPS30;46141;52.382;5.270;2023-11-19T05:58:19;4.28;4.11;3.24;2.05;16.55;16.51;16.25;15.02;11.70;0.86
60286;SPS30;46141;52.382;5.270;2023-11-19T06:00:46;4.67;4.48;3.51;2.19;17.72;17.67;17.39;16.01;12.41;0.85
60286;SPS30;46141;52.382;5.270;2023-11-19T06:03:13;4.78;4.58;3.57;2.19;17.75;17.70;17.40;15.97;12.29;0.87
60286;SPS30;46141;52.382;5.270;2023-11-19T06:05:39;4.68;4.48;3.48;2.11;17.09;17.05;16.75;15.32;11.73;0.88
60286;SPS30;46141;52.382;5.270;2023-11-19T06:08:08;4.55;4.37;3.46;2.21;17.85;17.81;17.54;16.24;12.71;0.83
60286;SPS30;46141;52.382;5.270;2023-11-19T06:10:34;4.54;4.36;3.47;2.24;18.13;18.09;17.83;16.56;13.03;0.82
60286;SPS30;46141;52.382;5.270;2023-11-19T06:13:00;4.21;4.05;3.21;2.06;16.67;16.63;16.38;15.20;11.92;0.83
60286;SPS30;46141;52.382;5.270;2023-11-19T06:15:30;4.32;4.14;3.26;2.05;16.58;16.54;16.28;15.03;11.69;0.86
60286;SPS30;46141;52.382;5.270;2023-11-19T06:17:57;4.62;4.43;3.44;2.11;17.09;17.04;16.75;15.36;11.81;0.88
60286;SPS30;46141;52.382;5.270;2023-11-19T06:20:26;4.76;4.55;3.55;2.19;17.72;17.67;17.37;15.96;12.30;0.88
60286;SPS30;46141;52.382;5.270;2023-11-19T06:22:55;4.66;4.48;3.55;2.28;18.40;18.36;18.09;16.77;13.15;0.85
60286;SPS30;46141;52.382;5.270;2023-11-19T06:25:22;4.24;4.08;3.28;2.16;17.45;17.42;17.18;16.04;12.72;0.85
60286;SPS30;46141;52.382;5.270;2023-11-19T06:27:49;4.53;4.35;3.45;2.21;17.86;17.82;17.56;16.28;12.76;0.86
60286;SPS30;46141;52.382;5.270;2023-11-19T06:30:15;4.68;4.50;3.62;2.39;19.28;19.24;18.98;17.72;14.06;0.83
60286;SPS30;46141;52.382;5.270;2023-11-19T06:32:41;3.98;3.83;3.12;2.11;17.05;17.02;16.80;15.78;12.65;0.82
60286;SPS30;46141;52.382;5.270;2023-11-19T06:35:07;4.08;3.93;3.18;2.13;17.20;17.16;16.94;15.87;12.67;0.82
60286;SPS30;46141;52.382;5.270;2023-11-19T06:37:34;4.56;4.38;3.49;2.26;18.26;18.22;17.95;16.68;13.13;0.85
60286;SPS30;46141;52.382;5.270;2023-11-19T06:40:01;4.88;4.67;3.64;2.24;18.12;18.08;17.77;16.31;12.56;0.87
60286;SPS30;46141;52.382;5.270;2023-11-19T06:42:29;4.55;4.37;3.49;2.27;18.36;18.32;18.06;16.81;13.26;0.82
60286;SPS30;46141;52.382;5.270;2023-11-19T06:44:55;4.51;4.33;3.44;2.22;17.94;17.91;17.64;16.38;12.87;0.83
60286;SPS30;46141;52.382;5.270;2023-11-19T06:47:22;4.41;4.22;3.30;2.04;16.53;16.49;16.22;14.91;11.52;0.86
60286;SPS30;46141;52.382;5.270;2023-11-19T06:49:51;4.76;4.56;3.54;2.16;17.53;17.49;17.18;15.75;12.09;0.87
60286;SPS30;46141;52.382;5.270;2023-11-19T06:52:17;4.41;4.22;3.30;2.05;16.58;16.54;16.26;14.96;11.56;0.86
60286;SPS30;46141;52.382;5.270;2023-11-19T06:54:44;4.76;4.56;3.58;2.24;18.11;18.07;17.78;16.39;12.71;0.85
60286;SPS30;46141;52.382;5.270;2023-11-19T06:57:13;4.80;4.60;3.60;2.24;18.11;18.07;17.77;16.36;12.66;0.85
60286;SPS30;46141;52.382;5.270;2023-11-19T06:59:39;4.87;4.66;3.60;2.17;17.57;17.52;17.21;15.71;11.99;0.87
60286;SPS30;46141;52.382;5.270;2023-11-19T07:02:06;5.42;5.20;4.05;2.50;20.25;20.20;19.86;18.25;14.07;0.87
60286;SPS30;46141;52.382;5.270;2023-11-19T07:04:32;4.74;4.54;3.54;2.18;17.69;17.65;17.35;15.94;12.29;0.87
60286;SPS30;46141;52.382;5.270;2023-11-19T07:06:58;5.31;5.10;4.06;2.62;21.19;21.14;20.83;19.35;15.22;0.84
60286;SPS30;46141;52.382;5.270;2023-11-19T07:09:27;4.57;4.38;3.46;2.20;17.79;17.75;17.47;16.17;12.63;0.85
60286;SPS30;46141;52.382;5.270;2023-11-19T07:11:53;4.81;4.60;3.55;2.14;17.38;17.33;17.02;15.55;11.87;0.88
60286;SPS30;46141;52.382;5.270;2023-11-19T07:14:19;5.38;5.16;4.03;2.49;20.20;20.15;19.82;18.22;14.08;0.87
60286;SPS30;46141;52.382;5.270;2023-11-19T07:16:46;5.14;4.91;3.75;2.19;17.77;17.72;17.38;15.75;11.84;0.93
60286;SPS30;46141;52.382;5.270;2023-11-19T07:19:12;4.89;4.67;3.62;2.19;17.73;17.68;17.37;15.88;12.13;0.91
60286;SPS30;46141;52.382;5.270;2023-11-19T07:21:41;5.05;4.84;3.80;2.37;19.16;19.11;18.80;17.32;13.42;0.88
60286;SPS30;46141;52.382;5.270;2023-11-19T07:24:09;4.98;4.76;3.67;2.20;17.85;17.80;17.48;15.94;12.13;0.89
60286;SPS30;46141;52.382;5.270;2023-11-19T07:26:40;4.80;4.59;3.56;2.17;17.57;17.52;17.22;15.76;12.08;0.88
60286;SPS30;46141;52.382;5.270;2023-11-19T07:29:07;4.99;4.78;3.74;2.33;18.84;18.80;18.49;17.02;13.18;0.86
60286;SPS30;46141;52.382;5.270;2023-11-19T07:31:33;4.31;4.14;3.29;2.11;17.10;17.06;16.81;15.60;12.25;0.84
60286;SPS30;46141;52.382;5.270;2023-11-19T07:33:59;4.43;4.25;3.38;2.17;17.55;17.51;17.25;16.01;12.57;0.85
60286;SPS30;46141;52.382;5.270;2023-11-19T07:36:25;4.40;4.22;3.31;2.08;16.84;16.80;16.54;15.26;11.86;0.87
60286;SPS30;46141;52.382;5.270;2023-11-19T07:38:51;4.82;4.62;3.61;2.24;18.14;18.10;17.80;16.37;12.66;0.88
60286;SPS30;46141;52.382;5.270;2023-11-19T07:41:18;4.27;4.10;3.21;2.01;16.26;16.22;15.96;14.71;11.41;0.87
60286;SPS30;46141;52.382;5.270;2023-11-19T07:43:45;4.82;4.63;3.65;2.31;18.69;18.65;18.36;16.97;13.24;0.86
60286;SPS30;46141;52.382;5.270;2023-11-19T07:46:15;4.54;4.34;3.37;2.05;16.64;16.60;16.31;14.94;11.45;0.88
60286;SPS30;46141;52.382;5.270;2023-11-19T07:48:43;4.62;4.41;3.39;2.01;16.32;16.27;15.97;14.53;11.01;0.90
60286;SPS30;46141;52.382;5.270;2023-11-19T07:51:10;4.83;4.62;3.57;2.16;17.50;17.45;17.14;15.67;11.97;0.88
60286;SPS30;46141;52.382;5.270;2023-11-19T07:53:37;4.70;4.50;3.47;2.09;16.94;16.89;16.59;15.14;11.54;0.89
60286;SPS30;46141;52.382;5.270;2023-11-19T07:56:03;4.32;4.13;3.20;1.94;15.74;15.70;15.42;14.10;10.79;0.89
60286;SPS30;46141;52.382;5.270;2023-11-19T07:58:30;4.60;4.41;3.42;2.09;16.94;16.90;16.61;15.22;11.69;0.89
60286;SPS30;46141;52.382;5.270;2023-11-19T08:00:56;4.28;4.11;3.23;2.03;16.42;16.38;16.12;14.88;11.57;0.86
60286;SPS30;46141;52.382;5.270;2023-11-19T08:03:22;4.23;4.07;3.29;2.19;17.67;17.64;17.40;16.28;12.96;0.82
60286;SPS30;46141;52.382;5.270;2023-11-19T08:05:48;4.48;4.31;3.44;2.24;18.13;18.09;17.83;16.60;13.11;0.86
60286;SPS30;46141;52.382;5.270;2023-11-19T08:08:14;3.85;3.70;2.92;1.85;14.94;14.91;14.68;13.57;10.59;0.89
60286;SPS30;46141;52.382;5.270;2023-11-19T08:10:40;3.79;3.63;2.84;1.77;14.34;14.30;14.07;12.96;10.04;0.89
60286;SPS30;46141;52.382;5.270;2023-11-19T08:13:06;3.98;3.81;2.95;1.79;14.48;14.44;14.19;12.97;9.92;0.91
60286;SPS30;46141;52.382;5.270;2023-11-19T08:15:32;3.77;3.62;2.83;1.76;14.25;14.21;13.98;12.87;9.96;0.88
60286;SPS30;46141;52.382;5.270;2023-11-19T08:17:59;4.38;4.19;3.26;2.00;16.19;16.15;15.87;14.56;11.19;0.89
60286;SPS30;46141;52.382;5.270;2023-11-19T08:20:25;3.96;3.80;3.00;1.90;15.35;15.31;15.07;13.93;10.86;0.88
60286;SPS30;46141;52.382;5.270;2023-11-19T08:22:51;4.18;4.00;3.15;1.98;16.06;16.02;15.77;14.56;11.33;0.88
60286;SPS30;46141;52.382;5.270;2023-11-19T08:25:17;4.36;4.19;3.35;2.20;17.74;17.70;17.45;16.26;12.86;0.85
60286;SPS30;46141;52.382;5.270;2023-11-19T08:27:43;4.20;4.04;3.22;2.10;16.96;16.92;16.68;15.53;12.25;0.85
60286;SPS30;46141;52.382;5.270;2023-11-19T08:30:09;3.47;3.34;2.70;1.80;14.55;14.52;14.33;13.41;10.68;0.83
60286;SPS30;46141;52.382;5.270;2023-11-19T08:32:35;3.70;3.56;2.86;1.88;15.22;15.19;14.98;13.98;11.08;0.83
60286;SPS30;46141;52.382;5.270;2023-11-19T08:35:01;4.07;3.91;3.10;1.98;16.01;15.98;15.74;14.58;11.42;0.84
60286;SPS30;46141;52.382;5.270;2023-11-19T08:37:27;4.28;4.10;3.20;1.97;15.99;15.95;15.68;14.40;11.11;0.86
60286;SPS30;46141;52.382;5.270;2023-11-19T08:39:53;3.91;3.74;2.88;1.72;13.97;13.93;13.68;12.47;9.48;0.89
60286;SPS30;46141;52.382;5.270;2023-11-19T08:42:19;4.91;4.68;3.54;2.01;16.33;16.28;15.95;14.33;10.62;0.92
60286;SPS30;46141;52.382;5.270;2023-11-19T08:44:50;4.62;4.42;3.41;2.05;16.62;16.57;16.28;14.85;11.32;0.90
60286;SPS30;46141;52.382;5.270;2023-11-19T08:47:19;3.80;3.64;2.86;1.78;14.44;14.41;14.17;13.06;10.12;0.87
60286;SPS30;46141;52.382;5.270;2023-11-19T08:49:47;3.54;3.39;2.65;1.65;13.35;13.32;13.10;12.06;9.33;0.87
60286;SPS30;46141;52.382;5.270;2023-11-19T08:52:13;3.64;3.48;2.71;1.67;13.51;13.47;13.25;12.16;9.36;0.87
60286;SPS30;46141;52.382;5.270;2023-11-19T08:54:42;3.12;2.99;2.34;1.45;11.72;11.69;11.49;10.57;8.16;0.85
60286;SPS30;46141;52.382;5.270;2023-11-19T08:57:08;4.24;4.06;3.16;1.94;15.71;15.67;15.41;14.14;10.88;0.86
60286;SPS30;46141;52.382;5.270;2023-11-19T08:59:35;4.15;3.97;3.05;1.81;14.70;14.66;14.39;13.09;9.92;0.88
60286;SPS30;46141;52.382;5.270;2023-11-19T09:02:03;3.81;3.64;2.79;1.65;13.41;13.37;13.12;11.93;9.02;0.88
60286;SPS30;46141;52.382;5.270;2023-11-19T09:04:29;3.87;3.70;2.86;1.72;13.97;13.93;13.68;12.50;9.54;0.88
60286;SPS30;46141;52.382;5.270;2023-11-19T09:06:57;3.65;3.49;2.71;1.66;13.44;13.41;13.18;12.08;9.28;0.88
60286;SPS30;46141;52.382;5.270;2023-11-19T09:09:23;4.25;4.07;3.21;2.02;16.33;16.29;16.03;14.80;11.51;0.87
60286;SPS30;46141;52.382;5.270;2023-11-19T09:11:49;4.71;4.50;3.48;2.09;16.94;16.89;16.59;15.14;11.54;0.90
60286;SPS30;46141;52.382;5.270;2023-11-19T09:14:15;3.58;3.43;2.67;1.64;13.27;13.24;13.02;11.94;9.19;0.88